createdAt,value
2022-07-26T00:00:25.965Z,1007.4
2022-07-26T00:01:42.346Z,1007.5
2022-07-26T00:02:58.345Z,1007.5
2022-07-26T00:04:14.724Z,1007.4
2022-07-26T00:05:30.704Z,1007.2
2022-07-26T00:06:47.103Z,1007.1
2022-07-26T00:08:03.088Z,1007
2022-07-26T00:09:19.267Z,1007
2022-07-26T00:10:34.472Z,1006.9
2022-07-26T00:11:50.867Z,1006.8
2022-07-26T00:13:06.860Z,1006.8
2022-07-26T00:14:23.043Z,1006.8
2022-07-26T00:15:39.421Z,1006.9
2022-07-26T00:16:55.409Z,1006.9
2022-07-26T00:18:11.602Z,1007
2022-07-26T00:19:27.983Z,1007.1
2022-07-26T00:20:43.972Z,1007
2022-07-26T00:22:00.366Z,1007
2022-07-26T00:23:16.550Z,1007
2022-07-26T00:24:32.539Z,1007
2022-07-26T00:25:48.714Z,1007
2022-07-26T00:27:04.128Z,1007
2022-07-26T00:28:20.102Z,1007
2022-07-26T00:29:36.496Z,1007
2022-07-26T00:30:52.698Z,1007
2022-07-26T00:32:08.873Z,1007.1
2022-07-26T00:33:24.862Z,1007
2022-07-26T00:34:41.047Z,1007
2022-07-26T00:35:57.238Z,1007
2022-07-26T00:37:13.618Z,1007
2022-07-26T00:38:29.808Z,1007
2022-07-26T00:39:45.803Z,1007.1
2022-07-26T00:41:01.981Z,1007
2022-07-26T00:42:18.385Z,1007.1
2022-07-26T00:43:33.371Z,1007.1
2022-07-26T00:44:49.557Z,1007
2022-07-26T00:46:05.963Z,1007
2022-07-26T00:47:21.942Z,1007.1
2022-07-26T00:48:38.122Z,1007.1
2022-07-26T00:49:54.515Z,1007
2022-07-26T00:51:10.494Z,1007
2022-07-26T00:52:26.679Z,1007
2022-07-26T00:53:42.861Z,1007
2022-07-26T00:54:59.271Z,1007
2022-07-26T00:56:15.249Z,1007
2022-07-26T00:57:31.638Z,1007
2022-07-26T00:58:47.620Z,1006.9
2022-07-26T01:00:02.831Z,1006.9
2022-07-26T01:01:19.220Z,1006.9
2022-07-26T01:02:35.411Z,1007
2022-07-26T01:03:51.374Z,1007
2022-07-26T01:05:07.573Z,1007.1
2022-07-26T01:06:23.748Z,1007
2022-07-26T01:07:40.163Z,1007
2022-07-26T01:08:56.338Z,1007
2022-07-26T01:10:12.536Z,1007.1
2022-07-26T01:11:28.720Z,1007.1
2022-07-26T01:12:44.908Z,1007.1
2022-07-26T01:14:00.871Z,1007.1
2022-07-26T01:15:17.271Z,1007
2022-07-26T01:16:32.482Z,1007.1
2022-07-26T01:17:48.455Z,1007.1
2022-07-26T01:19:04.649Z,1007.1
2022-07-26T01:20:21.034Z,1007.2
2022-07-26T01:21:37.012Z,1007.2
2022-07-26T01:22:53.413Z,1007.3
2022-07-26T01:24:08.628Z,1007.2
2022-07-26T01:25:24.806Z,1007.3
2022-07-26T01:27:57.188Z,1007.3
2022-07-26T01:29:13.162Z,1007.3
2022-07-26T01:30:29.345Z,1007.4
2022-07-26T01:31:45.746Z,1007.4
2022-07-26T01:33:01.937Z,1007.4
2022-07-26T01:34:17.911Z,1007.4
2022-07-26T01:35:34.304Z,1007.4
2022-07-26T01:36:50.292Z,1007.4
2022-07-26T01:38:06.684Z,1007.3
2022-07-26T01:39:22.666Z,1007.4
2022-07-26T01:40:38.084Z,1007.3
2022-07-26T01:41:54.054Z,1007.3
2022-07-26T01:43:10.452Z,1007.3
2022-07-26T01:44:26.432Z,1007.3
2022-07-26T01:45:42.825Z,1007.4
2022-07-26T01:46:59.029Z,1007.3
2022-07-26T01:48:15.197Z,1007.3
2022-07-26T01:49:31.179Z,1007.3
2022-07-26T01:50:47.365Z,1007.4
2022-07-26T01:52:03.544Z,1007.4
2022-07-26T01:53:19.955Z,1007.4
2022-07-26T01:54:36.134Z,1007.5
2022-07-26T01:55:52.098Z,1007.4
2022-07-26T01:57:08.303Z,1007.4
2022-07-26T01:58:23.708Z,1007.4
2022-07-26T01:59:39.686Z,1007.5
2022-07-26T02:00:56.083Z,1007.5
2022-07-26T02:02:12.058Z,1007.5
2022-07-26T02:03:28.239Z,1007.5
2022-07-26T02:04:44.428Z,1007.4
2022-07-26T02:06:00.843Z,1007.4
2022-07-26T02:07:16.801Z,1007.6
2022-07-26T02:08:33.220Z,1007.6
2022-07-26T02:09:49.184Z,1007.6
2022-07-26T02:11:05.585Z,1007.6
2022-07-26T02:12:21.556Z,1007.5
2022-07-26T02:13:37.961Z,1007.6
2022-07-26T02:14:52.949Z,1007.6
2022-07-26T02:16:09.365Z,1007.6
2022-07-26T02:17:25.537Z,1007.6
2022-07-26T02:18:41.511Z,1007.6
2022-07-26T02:19:57.692Z,1007.5
2022-07-26T02:21:13.871Z,1007.4
2022-07-26T02:22:30.062Z,1007.5
2022-07-26T02:23:46.470Z,1007.4
2022-07-26T02:25:02.451Z,1007.4
2022-07-26T02:26:18.864Z,1007.4
2022-07-26T02:27:35.033Z,1007.4
2022-07-26T02:28:51.006Z,1007.5
2022-07-26T02:30:07.187Z,1007.4
2022-07-26T02:31:22.629Z,1007.4
2022-07-26T02:32:38.799Z,1007.4
2022-07-26T02:33:54.776Z,1007.5
2022-07-26T02:35:10.953Z,1007.4
2022-07-26T02:36:27.359Z,1007.4
2022-07-26T02:37:43.319Z,1007.6
2022-07-26T02:38:59.744Z,1007.6
2022-07-26T02:40:15.928Z,1007.6
2022-07-26T02:41:31.891Z,1007.6
2022-07-26T02:42:48.085Z,1007.6
2022-07-26T02:44:04.487Z,1007.5
2022-07-26T02:45:20.454Z,1007.6
2022-07-26T02:46:36.637Z,1007.5
2022-07-26T02:47:52.070Z,1007.6
2022-07-26T02:50:24.000Z,1007.5
2022-07-26T02:51:40.407Z,1007.5
2022-07-26T02:52:56.594Z,1007.5
2022-07-26T02:54:12.775Z,1007.5
2022-07-26T02:55:28.964Z,1007.6
2022-07-26T02:56:45.382Z,1007.5
2022-07-26T02:58:01.577Z,1007.5
2022-07-26T02:59:17.524Z,1007.5
2022-07-26T03:00:33.714Z,1007.5
2022-07-26T03:01:50.125Z,1007.5
2022-07-26T03:03:06.323Z,1007.5
2022-07-26T03:04:21.525Z,1007.5
2022-07-26T03:05:37.476Z,1007.5
2022-07-26T03:06:53.896Z,1007.5
2022-07-26T03:08:09.854Z,1007.5
2022-07-26T03:09:26.275Z,1007.5
2022-07-26T03:10:42.450Z,1007.5
2022-07-26T03:11:58.415Z,1007.5
2022-07-26T03:13:14.601Z,1007.5
2022-07-26T03:14:31.026Z,1007.5
2022-07-26T03:15:46.978Z,1007.5
2022-07-26T03:17:03.393Z,1007.5
2022-07-26T03:18:19.352Z,1007.5
2022-07-26T03:19:35.774Z,1007.5
2022-07-26T03:20:50.728Z,1007.5
2022-07-26T03:22:07.152Z,1007.5
2022-07-26T03:23:23.119Z,1007.5
2022-07-26T03:24:39.295Z,1007.5
2022-07-26T03:25:55.728Z,1007.5
2022-07-26T03:27:11.913Z,1007.6
2022-07-26T03:28:27.869Z,1007.5
2022-07-26T03:29:44.284Z,1007.6
2022-07-26T03:31:00.228Z,1007.5
2022-07-26T03:32:16.650Z,1007.5
2022-07-26T03:33:32.855Z,1007.5
2022-07-26T03:34:49.044Z,1007.5
2022-07-26T03:36:04.980Z,1007.5
2022-07-26T03:37:20.198Z,1007.5
2022-07-26T03:38:36.386Z,1007.5
2022-07-26T03:39:52.808Z,1007.5
2022-07-26T03:41:08.749Z,1007.5
2022-07-26T03:42:25.168Z,1007.5
2022-07-26T03:43:41.126Z,1007.6
2022-07-26T03:44:57.546Z,1007.6
2022-07-26T03:46:13.504Z,1007.6
2022-07-26T03:47:29.917Z,1007.6
2022-07-26T03:48:46.116Z,1007.6
2022-07-26T03:50:02.065Z,1007.5
2022-07-26T03:51:18.242Z,1007.6
2022-07-26T03:52:34.663Z,1007.5
2022-07-26T03:53:49.635Z,1007.5
2022-07-26T03:55:06.059Z,1007.6
2022-07-26T03:56:22.006Z,1007.6
2022-07-26T03:57:38.196Z,1007.6
2022-07-26T03:58:54.392Z,1007.6
2022-07-26T04:00:10.815Z,1007.7
2022-07-26T04:01:26.752Z,1007.6
2022-07-26T04:02:42.952Z,1007.6
2022-07-26T04:03:59.137Z,1007.6
2022-07-26T04:05:15.554Z,1007.6
2022-07-26T04:06:31.504Z,1007.7
2022-07-26T04:07:47.938Z,1007.7
2022-07-26T04:09:03.876Z,1007.7
2022-07-26T04:10:19.078Z,1007.7
2022-07-26T04:11:35.510Z,1007.7
2022-07-26T04:12:51.696Z,1007.7
2022-07-26T04:14:07.651Z,1007.7
2022-07-26T04:15:23.826Z,1007.7
2022-07-26T04:16:40.028Z,1007.6
2022-07-26T04:17:56.449Z,1007.6
2022-07-26T04:19:12.639Z,1007.6
2022-07-26T04:20:28.824Z,1007.6
2022-07-26T04:21:45.006Z,1007.6
2022-07-26T04:23:01.197Z,1007.7
2022-07-26T04:24:17.140Z,1007.6
2022-07-26T04:25:33.576Z,1007.6
2022-07-26T04:26:48.535Z,1007.6
2022-07-26T04:28:04.714Z,1007.6
2022-07-26T04:29:20.915Z,1007.7
2022-07-26T04:30:37.344Z,1007.6
2022-07-26T04:31:53.286Z,1007.6
2022-07-26T04:33:09.465Z,1007.6
2022-07-26T04:34:25.903Z,1007.6
2022-07-26T04:35:41.837Z,1007.6
2022-07-26T04:36:58.028Z,1007.6
2022-07-26T04:38:14.469Z,1007.7
2022-07-26T04:39:30.400Z,1007.7
2022-07-26T04:40:46.834Z,1007.7
2022-07-26T04:42:02.784Z,1007.7
2022-07-26T04:43:18.240Z,1007.7
2022-07-26T04:44:34.413Z,1007.7
2022-07-26T04:45:50.601Z,1007.7
2022-07-26T04:47:06.550Z,1007.7
2022-07-26T04:48:22.975Z,1007.7
2022-07-26T04:49:39.174Z,1007.7
2022-07-26T04:50:55.345Z,1007.8
2022-07-26T04:52:11.296Z,1007.7
2022-07-26T04:53:27.737Z,1007.8
2022-07-26T04:54:43.664Z,1007.8
2022-07-26T04:56:00.106Z,1007.8
2022-07-26T04:57:16.035Z,1007.8
2022-07-26T04:58:32.232Z,1007.8
2022-07-26T04:59:47.436Z,1007.8
2022-07-26T05:01:03.864Z,1007.8
2022-07-26T05:02:19.811Z,1007.9
2022-07-26T05:03:36.235Z,1007.9
2022-07-26T05:04:52.421Z,1007.9
2022-07-26T05:06:08.359Z,1007.9
2022-07-26T05:07:24.542Z,1007.9
2022-07-26T05:08:40.989Z,1007.9
2022-07-26T05:09:56.916Z,1007.9
2022-07-26T05:11:13.101Z,1007.9
2022-07-26T05:12:29.556Z,1007.9
2022-07-26T05:13:45.742Z,1007.9
2022-07-26T05:15:01.681Z,1007.9
2022-07-26T05:16:17.130Z,1007.9
2022-07-26T05:17:33.316Z,1007.9
2022-07-26T05:18:49.503Z,1007.9
2022-07-26T05:20:05.442Z,1008
2022-07-26T05:21:21.885Z,1008
2022-07-26T05:22:37.801Z,1008
2022-07-26T05:23:54.260Z,1008
2022-07-26T05:25:10.181Z,1008
2022-07-26T05:26:26.640Z,1008.1
2022-07-26T05:27:42.568Z,1008.1
2022-07-26T05:28:59.004Z,1008.1
2022-07-26T05:30:14.942Z,1008.1
2022-07-26T05:31:31.386Z,1008.1
2022-07-26T05:32:46.320Z,1008.1
2022-07-26T05:34:02.766Z,1008.2
2022-07-26T05:35:18.967Z,1008.1
2022-07-26T05:36:35.147Z,1008.1
2022-07-26T05:37:51.069Z,1008.1
2022-07-26T05:39:06.271Z,1008.1
2022-07-26T05:40:22.470Z,1008.2
2022-07-26T05:41:38.906Z,1008.1
2022-07-26T05:42:54.842Z,1008.2
2022-07-26T05:44:11.035Z,1008.2
2022-07-26T05:45:27.219Z,1008.2
2022-07-26T05:46:43.669Z,1008.2
2022-07-26T05:47:59.601Z,1008.2
2022-07-26T05:49:16.050Z,1008.3
2022-07-26T05:50:32.219Z,1008.3
2022-07-26T05:51:48.422Z,1008.3
2022-07-26T05:53:04.597Z,1008.3
2022-07-26T05:54:20.796Z,1008.3
2022-07-26T05:55:35.988Z,1008.3
2022-07-26T05:56:52.175Z,1008.3
2022-07-26T05:58:08.374Z,1008.2
2022-07-26T05:59:24.561Z,1008.3
2022-07-26T06:00:40.736Z,1008.3
2022-07-26T06:01:56.939Z,1008.2
2022-07-26T06:03:13.114Z,1008.3
2022-07-26T06:04:29.299Z,1008.3
2022-07-26T06:05:45.496Z,1008.3
2022-07-26T06:07:01.681Z,1008.2
2022-07-26T06:08:17.859Z,1008.3
2022-07-26T06:09:34.055Z,1008.3
2022-07-26T06:10:50.240Z,1008.3
2022-07-26T06:12:05.437Z,1008.4
2022-07-26T06:13:21.638Z,1008.4
2022-07-26T06:14:37.810Z,1008.3
2022-07-26T06:15:54.010Z,1008.3
2022-07-26T06:17:10.200Z,1008.3
2022-07-26T06:18:26.385Z,1008.3
2022-07-26T06:19:42.562Z,1008.2
2022-07-26T06:20:58.747Z,1008.3
2022-07-26T06:22:14.945Z,1008.3
2022-07-26T06:23:31.137Z,1008.3
2022-07-26T06:24:47.313Z,1008.3
2022-07-26T06:26:03.506Z,1008.3
2022-07-26T06:27:19.684Z,1008.3
2022-07-26T06:28:34.888Z,1008.3
2022-07-26T06:29:51.086Z,1008.4
2022-07-26T06:31:07.263Z,1008.4
2022-07-26T06:32:23.448Z,1008.4
2022-07-26T06:33:39.647Z,1008.4
2022-07-26T06:34:55.826Z,1008.4
2022-07-26T06:36:12.016Z,1008.4
2022-07-26T06:37:28.214Z,1008.4
2022-07-26T06:38:44.398Z,1008.4
2022-07-26T06:40:00.575Z,1008.4
2022-07-26T06:41:16.762Z,1008.4
2022-07-26T06:42:32.954Z,1008.4
2022-07-26T06:43:49.140Z,1008.5
2022-07-26T06:45:04.345Z,1008.5
2022-07-26T06:46:20.523Z,1008.5
2022-07-26T06:47:36.717Z,1008.4
2022-07-26T06:48:52.893Z,1008.4
2022-07-26T06:50:09.093Z,1008.4
2022-07-26T06:51:25.286Z,1008.4
2022-07-26T06:52:41.462Z,1008.4
2022-07-26T06:53:57.649Z,1008.4
2022-07-26T06:55:13.836Z,1008.4
2022-07-26T06:56:30.029Z,1008.4
2022-07-26T06:57:46.217Z,1008.4
2022-07-26T06:59:02.405Z,1008.4
2022-07-26T07:00:18.582Z,1008.3
2022-07-26T07:01:33.809Z,1008.4
2022-07-26T07:02:49.974Z,1008.5
2022-07-26T07:04:06.176Z,1008.4
2022-07-26T07:05:22.369Z,1008.4
2022-07-26T07:06:38.548Z,1008.4
2022-07-26T07:07:54.733Z,1008.5
2022-07-26T07:09:10.931Z,1008.4
2022-07-26T07:10:27.132Z,1008.5
2022-07-26T07:11:43.322Z,1008.4
2022-07-26T07:12:59.485Z,1008.5
2022-07-26T07:14:15.701Z,1008.5
2022-07-26T07:15:31.888Z,1008.5
2022-07-26T07:16:48.058Z,1008.6
2022-07-26T07:18:03.270Z,1008.6
2022-07-26T07:19:19.461Z,1008.6
2022-07-26T07:20:35.650Z,1008.6
2022-07-26T07:21:51.838Z,1008.5
2022-07-26T07:23:08.008Z,1008.5
2022-07-26T07:24:24.213Z,1008.5
2022-07-26T07:25:40.399Z,1008.5
2022-07-26T07:26:56.591Z,1008.5
2022-07-26T07:28:12.779Z,1008.6
2022-07-26T07:29:28.964Z,1008.5
2022-07-26T07:30:45.169Z,1008.6
2022-07-26T07:32:01.331Z,1008.6
2022-07-26T07:33:17.546Z,1008.6
2022-07-26T07:34:32.749Z,1008.5
2022-07-26T07:35:48.942Z,1008.6
2022-07-26T07:37:05.119Z,1008.7
2022-07-26T07:38:21.294Z,1008.7
2022-07-26T07:39:37.486Z,1008.7
2022-07-26T07:40:53.687Z,1008.7
2022-07-26T07:42:09.867Z,1008.7
2022-07-26T07:43:26.072Z,1008.7
2022-07-26T07:44:42.264Z,1008.7
2022-07-26T07:45:58.429Z,1008.6
2022-07-26T07:47:14.606Z,1008.6
2022-07-26T07:48:30.823Z,1008.7
2022-07-26T07:49:47.009Z,1008.6
2022-07-26T07:51:02.206Z,1008.6
2022-07-26T07:52:18.413Z,1008.6
2022-07-26T07:53:34.601Z,1008.6
2022-07-26T07:54:50.773Z,1008.6
2022-07-26T07:56:06.967Z,1008.5
2022-07-26T07:57:23.142Z,1008.6
2022-07-26T07:58:39.354Z,1008.5
2022-07-26T07:59:55.508Z,1008.5
2022-07-26T08:01:11.736Z,1008.6
2022-07-26T08:02:27.900Z,1008.6
2022-07-26T08:03:44.076Z,1008.5
2022-07-26T08:05:00.281Z,1008.6
2022-07-26T08:06:16.484Z,1008.5
2022-07-26T08:07:31.698Z,1008.5
2022-07-26T08:08:47.870Z,1008.5
2022-07-26T08:10:04.053Z,1008.5
2022-07-26T08:11:20.257Z,1008.6
2022-07-26T08:12:36.440Z,1008.6
2022-07-26T08:13:52.637Z,1008.6
2022-07-26T08:15:08.833Z,1008.6
2022-07-26T08:16:24.979Z,1008.6
2022-07-26T08:17:41.197Z,1008.6
2022-07-26T08:18:57.387Z,1008.5
2022-07-26T08:20:13.573Z,1008.5
2022-07-26T08:21:29.776Z,1008.6
2022-07-26T08:22:45.941Z,1008.5
2022-07-26T08:24:01.171Z,1008.5
2022-07-26T08:25:17.328Z,1008.5
2022-07-26T08:26:33.543Z,1008.5
2022-07-26T08:27:49.699Z,1008.5
2022-07-26T08:29:05.892Z,1008.5
2022-07-26T08:30:22.106Z,1008.5
2022-07-26T08:31:38.293Z,1008.5
2022-07-26T08:32:54.453Z,1008.5
2022-07-26T08:34:10.679Z,1008.6
2022-07-26T08:35:26.853Z,1008.6
2022-07-26T08:36:43.046Z,1008.5
2022-07-26T08:37:59.242Z,1008.5
2022-07-26T08:39:15.431Z,1008.6
2022-07-26T08:40:30.602Z,1008.6
2022-07-26T08:41:46.801Z,1008.5
2022-07-26T08:43:03.008Z,1008.5
2022-07-26T08:44:19.212Z,1008.5
2022-07-26T08:45:35.392Z,1008.5
2022-07-26T08:46:51.589Z,1008.6
2022-07-26T08:48:07.740Z,1008.6
2022-07-26T08:49:23.961Z,1008.6
2022-07-26T08:50:40.157Z,1008.6
2022-07-26T08:51:56.345Z,1008.7
2022-07-26T08:53:12.529Z,1008.6
2022-07-26T08:54:28.707Z,1008.7
2022-07-26T08:55:44.869Z,1008.7
2022-07-26T08:57:00.109Z,1008.7
2022-07-26T08:58:16.295Z,1008.6
2022-07-26T08:59:32.450Z,1008.7
2022-07-26T09:00:48.634Z,1008.6
2022-07-26T09:02:04.861Z,1008.7
2022-07-26T09:03:21.027Z,1008.7
2022-07-26T09:04:37.252Z,1008.7
2022-07-26T09:05:53.436Z,1008.6
2022-07-26T09:07:09.629Z,1008.7
2022-07-26T09:08:25.771Z,1008.7
2022-07-26T09:09:41.955Z,1008.6
2022-07-26T09:10:58.160Z,1008.8
2022-07-26T09:12:14.375Z,1008.7
2022-07-26T09:13:29.549Z,1008.8
2022-07-26T09:14:45.777Z,1008.7
2022-07-26T09:16:01.928Z,1008.8
2022-07-26T09:17:18.154Z,1008.8
2022-07-26T09:18:34.306Z,1008.8
2022-07-26T09:19:50.533Z,1008.8
2022-07-26T09:21:06.689Z,1008.8
2022-07-26T09:22:22.903Z,1008.7
2022-07-26T09:23:39.087Z,1008.8
2022-07-26T09:24:55.280Z,1008.8
2022-07-26T09:26:11.481Z,1008.7
2022-07-26T09:27:27.669Z,1008.8
2022-07-26T09:28:43.807Z,1008.8
2022-07-26T09:29:59.062Z,1008.7
2022-07-26T09:31:15.202Z,1008.8
2022-07-26T09:32:31.443Z,1008.8
2022-07-26T09:33:47.579Z,1008.8
2022-07-26T09:35:03.805Z,1008.8
2022-07-26T09:36:19.956Z,1008.8
2022-07-26T09:37:36.201Z,1008.8
2022-07-26T09:38:52.380Z,1008.8
2022-07-26T09:40:08.534Z,1008.8
2022-07-26T09:41:24.753Z,1008.8
2022-07-26T09:42:40.946Z,1008.8
2022-07-26T09:43:57.146Z,1008.8
2022-07-26T09:45:13.295Z,1008.8
2022-07-26T09:46:28.530Z,1008.9
2022-07-26T09:47:44.000Z,1008.9
2022-07-26T09:49:00.861Z,1008.9
2022-07-26T09:50:17.092Z,1008.9
2022-07-26T09:51:33.252Z,1008.8
2022-07-26T09:52:49.435Z,1008.9
2022-07-26T09:54:04.659Z,1008.8
2022-07-26T09:55:20.874Z,1008.9
2022-07-26T09:56:37.019Z,1008.8
2022-07-26T09:57:53.218Z,1008.8
2022-07-26T09:59:09.442Z,1008.8
2022-07-26T10:00:25.630Z,1008.9
2022-07-26T10:01:41.825Z,1008.9
2022-07-26T10:02:58.026Z,1008.9
2022-07-26T10:04:14.197Z,1008.9
2022-07-26T10:05:30.400Z,1008.8
2022-07-26T10:06:46.590Z,1008.8
2022-07-26T10:08:02.770Z,1008.8
2022-07-26T10:09:18.971Z,1008.8
2022-07-26T10:10:34.125Z,1008.8
2022-07-26T10:11:50.306Z,1008.7
2022-07-26T10:13:06.552Z,1008.8
2022-07-26T10:14:22.731Z,1008.8
2022-07-26T10:15:38.928Z,1008.7
2022-07-26T10:16:55.104Z,1008.6
2022-07-26T10:18:11.299Z,1008.7
2022-07-26T10:19:27.482Z,1008.7
2022-07-26T10:20:43.687Z,1008.7
2022-07-26T10:21:59.828Z,1008.7
2022-07-26T10:23:16.062Z,1008.7
2022-07-26T10:24:32.196Z,1008.7
2022-07-26T10:25:48.397Z,1008.8
2022-07-26T10:27:03.596Z,1008.8
2022-07-26T10:28:19.834Z,1008.7
2022-07-26T10:29:36.023Z,1008.8
2022-07-26T10:30:52.158Z,1008.8
2022-07-26T10:32:08.355Z,1008.8
2022-07-26T10:33:24.583Z,1008.8
2022-07-26T10:34:40.784Z,1008.8
2022-07-26T10:35:56.959Z,1008.8
2022-07-26T10:37:13.099Z,1008.8
2022-07-26T10:38:29.342Z,1008.7
2022-07-26T10:39:45.528Z,1008.7
2022-07-26T10:41:01.730Z,1008.7
2022-07-26T10:42:17.868Z,1008.7
2022-07-26T10:43:33.108Z,1008.8
2022-07-26T10:44:49.305Z,1008.8
2022-07-26T10:46:05.505Z,1008.8
2022-07-26T10:47:21.679Z,1008.8
2022-07-26T10:48:37.829Z,1008.9
2022-07-26T10:49:54.013Z,1008.9
2022-07-26T10:51:10.257Z,1008.9
2022-07-26T10:52:26.386Z,1008.9
2022-07-26T10:53:42.628Z,1008.8
2022-07-26T10:54:58.828Z,1008.9
2022-07-26T10:56:14.953Z,1008.8
2022-07-26T10:57:31.147Z,1008.9
2022-07-26T10:58:47.328Z,1008.9
2022-07-26T11:00:02.536Z,1008.9
2022-07-26T11:01:18.779Z,1008.9
2022-07-26T11:02:34.962Z,1008.9
2022-07-26T11:03:51.114Z,1008.9
2022-07-26T11:05:07.287Z,1008.9
2022-07-26T11:06:23.535Z,1008.8
2022-07-26T11:07:39.668Z,1008.8
2022-07-26T11:08:55.923Z,1008.8
2022-07-26T11:10:12.105Z,1008.8
2022-07-26T11:11:28.294Z,1008.8
2022-07-26T11:12:44.426Z,1008.7
2022-07-26T11:14:00.625Z,1008.8
2022-07-26T11:15:16.801Z,1008.7
2022-07-26T11:16:32.070Z,1008.8
2022-07-26T11:17:48.267Z,1008.8
2022-07-26T11:19:04.441Z,1008.9
2022-07-26T11:20:20.628Z,1008.9
2022-07-26T11:21:36.815Z,1008.9
2022-07-26T11:22:52.958Z,1008.9
2022-07-26T11:24:09.154Z,1008.8
2022-07-26T11:25:25.388Z,1008.8
2022-07-26T11:26:41.571Z,1009
2022-07-26T11:27:57.712Z,1009
2022-07-26T11:29:13.964Z,1008.9
2022-07-26T11:30:30.147Z,1008.9
2022-07-26T11:31:46.337Z,1008.9
2022-07-26T11:33:01.485Z,1008.9
2022-07-26T11:34:17.664Z,1008.9
2022-07-26T11:35:33.915Z,1008.9
2022-07-26T11:36:50.116Z,1008.9
2022-07-26T11:38:06.292Z,1008.9
2022-07-26T11:39:22.427Z,1008.9
2022-07-26T11:40:38.686Z,1008.8
2022-07-26T11:41:54.873Z,1008.7
2022-07-26T11:43:11.003Z,1008.8
2022-07-26T11:44:27.247Z,1008.8
2022-07-26T11:45:43.441Z,1008.8
2022-07-26T11:46:59.627Z,1008.8
2022-07-26T11:48:15.817Z,1008.9
2022-07-26T11:49:31.023Z,1008.8
2022-07-26T11:50:47.145Z,1008.8
2022-07-26T11:52:03.334Z,1008.8
2022-07-26T11:53:19.593Z,1008.7
2022-07-26T11:54:35.778Z,1008.7
2022-07-26T11:55:51.966Z,1008.7
2022-07-26T11:57:08.152Z,1008.7
2022-07-26T11:58:24.341Z,1008.7
2022-07-26T11:59:40.479Z,1008.7
2022-07-26T12:00:56.729Z,1008.8
2022-07-26T12:02:12.905Z,1008.7
2022-07-26T12:03:29.103Z,1008.8
2022-07-26T12:04:45.290Z,1008.8
2022-07-26T12:06:00.433Z,1008.8
2022-07-26T12:07:16.615Z,1008.8
2022-07-26T12:08:32.873Z,1008.9
2022-07-26T12:09:49.065Z,1008.9
2022-07-26T12:11:05.194Z,1009
2022-07-26T12:12:21.382Z,1008.9
2022-07-26T12:13:37.573Z,1009
2022-07-26T12:14:53.816Z,1009
2022-07-26T12:16:09.937Z,1009
2022-07-26T12:17:26.138Z,1009
2022-07-26T12:18:42.377Z,1008.9
2022-07-26T12:19:58.571Z,1009
2022-07-26T12:21:14.705Z,1009.1
2022-07-26T12:22:29.970Z,1009
2022-07-26T12:23:46.151Z,1009
2022-07-26T12:25:02.270Z,1009
2022-07-26T12:26:18.461Z,1009
2022-07-26T12:27:34.732Z,1009.1
2022-07-26T12:28:50.841Z,1009.2
2022-07-26T12:30:07.031Z,1009.2
2022-07-26T12:31:23.222Z,1009.3
2022-07-26T12:32:39.489Z,1009.5
2022-07-26T12:33:55.678Z,1009.6
2022-07-26T12:35:11.859Z,1009.5
2022-07-26T12:36:27.977Z,1009.6
2022-07-26T12:37:44.239Z,1009.7
2022-07-26T12:38:59.367Z,1009.8
2022-07-26T12:40:15.553Z,1009.9
2022-07-26T12:41:31.759Z,1009.9
2022-07-26T12:42:47.948Z,1009.9
2022-07-26T12:44:04.122Z,1009.9
2022-07-26T12:45:20.399Z,1009.9
2022-07-26T12:46:36.581Z,1010
2022-07-26T12:47:52.762Z,1010
2022-07-26T12:49:08.960Z,1010
2022-07-26T12:50:25.145Z,1010
2022-07-26T12:51:41.257Z,1010.1
2022-07-26T12:52:57.524Z,1010
2022-07-26T12:54:13.721Z,1010.2
2022-07-26T12:55:28.848Z,1010.2
2022-07-26T12:56:45.102Z,1010.2
2022-07-26T12:58:01.223Z,1010.2
2022-07-26T12:59:17.413Z,1010.2
2022-07-26T13:00:33.668Z,1010.2
2022-07-26T13:01:49.792Z,1010.2
2022-07-26T13:03:06.052Z,1010.2
2022-07-26T13:04:22.239Z,1010.2
2022-07-26T13:05:38.423Z,1010.2
2022-07-26T13:06:54.550Z,1010.2
2022-07-26T13:08:10.738Z,1010.2
2022-07-26T13:09:26.994Z,1010.2
2022-07-26T13:10:43.114Z,1010.2
2022-07-26T13:11:58.394Z,1010.3
2022-07-26T13:13:14.495Z,1010.3
2022-07-26T13:14:30.692Z,1010.3
2022-07-26T13:15:46.952Z,1010.2
2022-07-26T13:17:03.146Z,1010.2
2022-07-26T13:18:19.336Z,1010.3
2022-07-26T13:19:35.538Z,1010.3
2022-07-26T13:20:51.725Z,1010.3
2022-07-26T13:22:07.828Z,1010.2
2022-07-26T13:23:24.086Z,1010.3
2022-07-26T13:24:40.292Z,1010.4
2022-07-26T13:25:56.384Z,1010.3
2022-07-26T13:27:12.587Z,1010.4
2022-07-26T13:28:27.859Z,1010.4
2022-07-26T13:29:43.972Z,1010.4
2022-07-26T13:31:00.238Z,1010.4
2022-07-26T13:32:16.428Z,1010.4
2022-07-26T13:33:32.626Z,1010.3
2022-07-26T13:34:48.730Z,1010.4
2022-07-26T13:36:05.003Z,1010.4
2022-07-26T13:37:21.196Z,1010.3
2022-07-26T13:38:37.378Z,1010.4
2022-07-26T13:39:53.567Z,1010.3
2022-07-26T13:41:09.683Z,1010.3
2022-07-26T13:42:25.957Z,1010.4
2022-07-26T13:43:42.142Z,1010.4
2022-07-26T13:44:57.260Z,1010.3
2022-07-26T13:46:13.442Z,1010.3
2022-07-26T13:47:29.717Z,1010.4
2022-07-26T13:48:45.919Z,1010.4
2022-07-26T13:50:02.092Z,1010.4
2022-07-26T13:51:18.291Z,1010.4
2022-07-26T13:52:34.398Z,1010.3
2022-07-26T13:53:50.571Z,1010.4
2022-07-26T13:55:06.760Z,1010.4
2022-07-26T13:56:23.039Z,1010.3
2022-07-26T13:57:39.244Z,1010.3
2022-07-26T13:58:55.419Z,1010.3
2022-07-26T14:00:11.531Z,1010.3
2022-07-26T14:01:26.813Z,1010.3
2022-07-26T14:02:43.012Z,1010.4
2022-07-26T14:03:59.198Z,1010.3
2022-07-26T14:05:15.387Z,1010.3
2022-07-26T14:06:31.578Z,1010.3
2022-07-26T14:07:47.670Z,1010.3
2022-07-26T14:09:02.963Z,1010.3
2022-07-26T14:10:19.160Z,1010.3
2022-07-26T14:11:35.355Z,1010.3
2022-07-26T14:12:51.454Z,1010.3
2022-07-26T14:14:07.640Z,1010.3
2022-07-26T14:15:23.834Z,1010.3
2022-07-26T14:16:40.099Z,1010.3
2022-07-26T14:17:56.301Z,1010.4
2022-07-26T14:19:12.495Z,1010.3
2022-07-26T14:20:28.673Z,1010.4
2022-07-26T14:21:44.859Z,1010.4
2022-07-26T14:23:00.962Z,1010.4
2022-07-26T14:24:17.148Z,1010.4
2022-07-26T14:25:32.443Z,1010.4
2022-07-26T14:26:48.646Z,1010.4
2022-07-26T14:28:04.729Z,1010.5
2022-07-26T14:29:21.007Z,1010.4
2022-07-26T14:30:37.110Z,1010.4
2022-07-26T14:31:53.384Z,1010.3
2022-07-26T14:33:09.582Z,1010.3
2022-07-26T14:34:25.761Z,1010.4
2022-07-26T14:35:41.857Z,1010.3
2022-07-26T14:36:58.064Z,1010.4
2022-07-26T14:38:14.238Z,1010.4
2022-07-26T14:39:30.528Z,1010.4
2022-07-26T14:40:46.715Z,1010.4
2022-07-26T14:42:01.922Z,1010.4
2022-07-26T14:43:18.116Z,1010.4
2022-07-26T14:44:34.304Z,1010.3
2022-07-26T14:45:50.497Z,1010.3
2022-07-26T14:47:06.682Z,1010.3
2022-07-26T14:48:22.874Z,1010.3
2022-07-26T14:49:38.959Z,1010.4
2022-07-26T14:50:55.157Z,1010.4
2022-07-26T14:52:11.426Z,1010.5
2022-07-26T14:53:27.625Z,1010.4
2022-07-26T14:54:43.821Z,1010.5
2022-07-26T14:56:00.011Z,1010.5
2022-07-26T14:57:16.200Z,1010.4
2022-07-26T14:58:31.306Z,1010.5
2022-07-26T14:59:47.480Z,1010.5
2022-07-26T15:01:03.768Z,1010.5
2022-07-26T15:02:19.965Z,1010.5
2022-07-26T15:03:36.057Z,1010.5
2022-07-26T15:04:52.349Z,1010.5
2022-07-26T15:06:08.523Z,1010.5
2022-07-26T15:07:24.713Z,1010.6
2022-07-26T15:08:40.911Z,1010.5
2022-07-26T15:09:56.998Z,1010.5
2022-07-26T15:11:13.290Z,1010.6
2022-07-26T15:12:29.483Z,1010.5
2022-07-26T15:13:45.658Z,1010.6
2022-07-26T15:15:00.773Z,1010.6
2022-07-26T15:16:16.968Z,1010.6
2022-07-26T15:17:33.253Z,1010.5
2022-07-26T15:18:49.330Z,1010.5
2022-07-26T15:20:05.624Z,1010.5
2022-07-26T15:21:21.814Z,1010.5
2022-07-26T15:22:38.009Z,1010.5
2022-07-26T15:23:54.093Z,1010.5
2022-07-26T15:25:10.392Z,1010.5
2022-07-26T15:26:26.578Z,1010.5
2022-07-26T15:27:42.664Z,1010.6
2022-07-26T15:28:58.956Z,1010.6
2022-07-26T15:30:15.029Z,1010.5
2022-07-26T15:31:30.254Z,1010.5
2022-07-26T15:32:46.538Z,1010.4
2022-07-26T15:34:02.734Z,1010.4
2022-07-26T15:35:18.915Z,1010.4
2022-07-26T15:36:35.106Z,1010.4
2022-07-26T15:37:51.301Z,1010.5
2022-07-26T15:39:07.380Z,1010.4
2022-07-26T15:40:23.561Z,1010.4
2022-07-26T15:41:39.871Z,1010.4
2022-07-26T15:42:56.042Z,1010.4
2022-07-26T15:44:12.126Z,1010.4
2022-07-26T15:45:28.432Z,1010.4
2022-07-26T15:46:44.623Z,1010.3
2022-07-26T15:47:59.706Z,1010.4
2022-07-26T15:49:15.900Z,1010.4
2022-07-26T15:50:32.210Z,1010.4
2022-07-26T15:51:48.397Z,1010.4
2022-07-26T15:53:04.465Z,1010.4
2022-07-26T15:54:20.665Z,1010.4
2022-07-26T15:55:36.844Z,1010.4